Terminal Aerodrome Forecast
Issued by NWS

Home | Current Version | Previous Version | Text Only | Print | Product List | Glossary On
Versions: 1 2 3 4 5 6 7 8 9 10 11 12 13 14 15 16 17 18 19 20 21 22 23
000
FTUS41 KPHI 301459 AAB
TAFMIV
TAF AMD
KMIV 301459Z 3015/0112 09012G20KT P6SM BKN040
     FM301800 10012G20KT P6SM BKN025
     FM302200 10012KT 4SM BR OVC007
     FM010600 12006KT 1SM BR OVC003
     FM011000 19006KT 1SM BR OVC003=

USA.gov is the U.S. government's official web portal to all federal, state and local government web resources and services.